Flight Track Log - Related Links

Times and Time Zones

All times are in EDT time to prevent confusion due to time zone crossing. See the AAY841 flight status page for this flight to view local times or setup timezone preferences in your user account.

Time Position Orientation Groundspeed Altitude Reporting Facility
EDT Latitude Longitude Course Direction KTS MPH feet Rate Location/Type
Thu 11:02:05 AM 36.2186 -82.4097 182° South 280 322 10,100  Level Atlanta Center
Thu 11:03:05 AM 36.1264 -82.3936 172° South 318 366 12,100 2,133 Climbing Atlanta Center
Thu 11:05:05 AM 35.9178 -82.3925 180° South 378 435 16,500 2,133 Climbing Atlanta Center
Thu 11:06:05 AM 35.8053 -82.3950 181° South 406 467 18,500 1,800 Climbing Atlanta Center
Thu 11:07:00 AM 35.5861 -82.4391 182° South  Level Estimated
Thu 11:07:05 AM 35.6928 -82.3997 182° South 406 467 20,100  Level Atlanta Center
Thu 11:08:05 AM 35.5739 -82.4047 182° South 412 474 21,600 1,375 Climbing Atlanta Center
Thu 11:11:05 AM 35.2047 -82.4144 182° South 462 532 25,600 1,400 Climbing Atlanta Center
Thu 11:12:05 AM 35.0628 -82.4147 180° South 462 532 27,200 2,200 Climbing Atlanta Center
Thu 11:13:05 AM 34.9397 -82.4172 181° South 462 532 30,000 1,850 Climbing Atlanta Center
Thu 11:14:05 AM 34.8208 -82.4244 183° South 445 512 30,900 500 Climbing Atlanta Center
Thu 11:15:05 AM 34.7019 -82.4269 181° South 435 501 31,000 350 Climbing Atlanta Center
Thu 11:16:05 AM 34.5808 -82.4292 181° South 435 501 31,600 500 Climbing Atlanta Center
Thu 11:17:00 AM 34.6166 -82.4428 182° South  Level Estimated
Thu 11:17:05 AM 34.4558 -82.4317 181° South 441 507 32,000  Level Atlanta Center
Thu 11:18:05 AM 34.3347 -82.4364 182° South 446 513 32,000  Level Atlanta Center
Thu 11:19:05 AM 34.2117 -82.4386 181° South 441 507 32,000  Level Atlanta Center
Thu 11:20:05 AM 34.0928 -82.4433 182° South 441 507 32,000  Level Atlanta Center
Thu 11:21:05 AM 33.9675 -82.4458 181° South 441 507 32,000  Level Atlanta Center
Thu 11:22:05 AM 33.8467 -82.4481 181° South 436 502 32,000  Level Atlanta Center
Thu 11:24:05 AM 33.6003 -82.4550 181° South 473 544 32,000  Level Atlanta Center
Thu 11:25:05 AM 33.4814 -82.4572 181° South 459 528 32,000  Level Atlanta Center
Thu 11:26:05 AM 33.3603 -82.4619 182° South 443 510 32,000  Level Atlanta Center
Thu 11:27:05 AM 33.2372 -82.4667 182° South 443 510 32,000  Level Atlanta Center
Thu 11:28:05 AM 33.1142 -82.4689 181° South 438 504 32,000  Level Atlanta Center
Thu 11:29:05 AM 32.9931 -82.4736 182° South 438 504 32,000  Level Atlanta Center
Thu 11:30:05 AM 32.8553 -82.4736 180° South 438 504 32,000  Level Atlanta Center
Thu 11:31:05 AM 32.7344 -82.4783 182° South 438 504 32,000  Level Atlanta Center
Thu 11:33:28 AM 32.4436 -82.4864 181° South 444 511 32,000  Level Jacksonville Center
Thu 11:34:28 AM 32.3328 -82.4869 180° South 444 511 32,000  Level Jacksonville Center
Thu 11:35:28 AM 32.2097 -82.4900 181° South 444 511 32,000  Level Jacksonville Center
Thu 11:37:28 AM 31.9656 -82.4958 181° South 445 512 32,000  Level Jacksonville Center
Thu 11:39:28 AM 31.7192 -82.5042 182° South 439 505 32,000  Level Jacksonville Center
Thu 11:40:28 AM 31.5939 -82.5072 181° South 444 511 32,000  Level Jacksonville Center
Thu 11:41:28 AM 31.4708 -82.5125 182° South 444 511 32,000 -50 Level Jacksonville Center
Thu 11:42:28 AM 31.3456 -82.5181 182° South 444 511 31,900 -50 Descending Jacksonville Center
Thu 11:43:28 AM 31.2203 -82.5111 177° South 444 511 31,900  Level Jacksonville Center
Thu 11:44:28 AM 31.1156 -82.4317 147° Southeast 430 495 31,900 50 Level Jacksonville Center
Thu 11:45:28 AM 31.0067 -82.3497 147° Southeast 438 504 32,000 50 Climbing Jacksonville Center
Thu 11:46:28 AM 30.8811 -82.3358 175° South 436 502 32,000 -50 Level Jacksonville Center
Thu 11:47:27 AM 30.7603 -82.3414 182° South 441 507 31,900 -50 Descending Jacksonville Center
Thu 11:48:28 AM 30.6369 -82.3444 181° South 441 507 31,900 -319 Level Jacksonville Center
Thu 11:52:28 AM 30.1400 -82.3522 177° South 436 502 30,300 -460 Descending Jacksonville Center
Thu 11:53:28 AM 30.0253 -82.3528 180° South 424 488 29,600 -750 Descending Jacksonville Center
Thu 11:54:28 AM 29.9106 -82.3533 180° South 412 474 28,800 -800 Descending Jacksonville Center
Thu 11:56:28 AM 29.6744 -82.3547 180° South 422 486 27,200 -775 Descending Jacksonville Center
Thu 11:57:00 AM 29.7010 -82.3573 177° South  Level FlightAware Approximate
Thu 11:58:28 AM 29.4428 -82.3417 177° South 422 486 25,700  Level Jacksonville Center
Thu 11:59:28 AM 29.3319 -82.3281 174° South 422 486 23,500 -2,100 Descending Jacksonville Center
Thu 12:00:28 PM 29.2233 -82.3144 174° South 410 472 21,500 -1,800 Descending Jacksonville Center
Thu 12:01:28 PM 29.1400 -82.3053 175° South 397 457 19,900 -1,967 Descending Jacksonville Center
Thu 12:03:28 PM 28.9289 -82.2828 175° South 368 423 15,600 -1,991 Descending Jacksonville Center
Thu 12:04:59 PM 28.7739 -82.2636 174° South 357 411 12,900 -1,385 Descending Miami Center
Thu 12:05:38 PM 28.7167 -82.2667 183° South 327 376 12,600 -788 Descending Tampa TRACON
Thu 12:06:38 PM 28.6333 -82.2833 190° South 309 356 11,600 -1,050 Descending Tampa TRACON
Thu 12:07:38 PM 28.6000 -82.3833 249° West 299 344 10,500 -800 Descending Tampa TRACON
Thu 12:08:38 PM 28.5667 -82.4667 246° West 301 346 10,000 -950 Descending Tampa TRACON
Thu 12:09:38 PM 28.5167 -82.5333 230° Southwest 293 337 8,600 -1,450 Descending Tampa TRACON
Thu 12:10:38 PM 28.4667 -82.6000 230° Southwest 287 330 7,100 -1,500 Descending Tampa TRACON
Thu 12:11:38 PM 28.4167 -82.6667 230° Southwest 282 325 5,600 -1,338 Descending Tampa TRACON
Thu 12:13:15 PM 28.3100 -82.6986 195° South 264 304 3,600 -1,019 Descending Miami Center
Thu 12:14:17 PM 28.2406 -82.6958 178° South 262 302 2,900 -339 Descending Miami Center
Thu 12:15:19 PM 28.1739 -82.6858 172° South 214 246 2,900 -387 Level Miami Center
Thu 12:16:21 PM 28.1167 -82.6781 173° South 212 244 2,100 -677 Descending Miami Center
Thu 12:17:23 PM 28.0608 -82.6642 168° South 211 243 1,500 -290 Descending Miami Center
Thu 12:18:25 PM 28.0131 -82.6594 175° South 191 220 1,500 -242 Level Miami Center
Thu 12:19:27 PM 27.9736 -82.6719 196° South 173 199 1,000 -532 Descending Miami Center
Thu 12:20:29 PM 27.9439 -82.6947 214° Southwest 147 169 400 -581 Descending Miami Center
Thu 12:22:00 PM 27.9100 -82.6875 169° South  Level Estimated
Thu 12:29:00 PM 27.9100 -82.6875 North  Level Estimated
Thu 12:30:00 PM 27.9100 -82.6875 310° West  Level Estimated

Login

Don't have an account? Register now (free) for customized features, flight alerts, and more!